Saarbruecken - Ensheim, Germany

8:05 PM CEST on September 17, 2014 (GMT +0200)
ISAARLAN15 | Change Station
CLOSE
Current Station
Personal Weather Station
Location: Blieskastel, SAARLAND
Elevation: 922 ft
Nearby Weather Stations

Elev 922 ft 49.26 °N, 7.24 °E | Updated 5 minutes ago

Overcast
Overcast
70.0 °F
Feels Like 70.0 °F
N
0.5
Wind Variable Wind from ENE
Gusts 3.0 mph

Today
High -- | Low -- °F
--% Chance of Precip.
Yesterday
High -- | Low -- °F
Precip. -- in
7:10 AM 7:40 PM
Waning Crescent, 34% visible
Pressure 29.88 in
Visibility 6.2 miles
Clouds Clear
Dew Point 63 °F
Humidity 78%
Rainfall 0.01 in
Snow Depth Not available.
UV 0 out of 12
Pollen Not available.
Air Quality Not available.
Flu Activity Not available.
METAR ETAR 171758Z AUTO 08003KT 9999 -RA CLR 19/14 A2987 RMK AO2 RAB1748 SLP116 P0000 60000 T01870139 10257 20187 53002 $

More Conditions Fewer Conditions

Pressure 29.88 in
Visibility 6.2 miles
Clouds Clear
Dew Point 63 °F
Humidity 78%
Rainfall 0.01 in
Snow Depth Not available.
UV 0 out of 12
Pollen Not available.
Air Quality Not available.
Flu Activity Not available.
METAR ETAR 171758Z AUTO 08003KT 9999 -RA CLR 19/14 A2987 RMK AO2 RAB1748 SLP116 P0000 60000 T01870139 10257 20187 53002 $

More Conditions Fewer Conditions

10-Day Weather Forecast

Almanac

Astronomy

Sep. 17, 2014 Rise Set
Actual Time 7:10 AM CEST 7:40 PM CEST
Civil Twilight 6:38 AM CEST 8:12 PM CEST
Nautical Twilight 6:00 AM CEST 8:50 PM CEST
Astronomical Twilight 5:20 AM CEST 9:29 PM CEST
Moon 12:33 AM CEST 4:00 PM CEST
Length of Visible Light 13h 34m
Length of Day
12h 30m
Tomorrow will be 3m 36s shorter.
Waning Crescent, 34% of the Moon is Illuminated
Today
Waning Crescent
Sep 24
New
Oct 1
First Quarter
Oct 8
Full
Oct 15
Last Quarter

Today's Extremes

Country Highs Country Lows

Community

WunderPhotos

Upload Photos

1,754,112 photos uploaded!

WunderBlogs® & News

Nearby

Snow Depth

Not available.

Earthquake Activity

City Distance Mag. Time & Date
No recent earthquake activity has been reported nearby.
Minimum magnitude displayed is 2.5.

Coastal Water Temperatures

Place Temperature
No Stations Reporting

Nearby Weather Stations